Time;durP1;ratioP1;P1;durP2;ratioP2;P2;SDS_P1;SDS_P2;PMS_P1;PMS_P2;Temp;Humidity;BMP_temperature;BMP_pressure;BME280_temperature;BME280_humidity;BME280_pressure;Samples;Min_cycle;Max_cycle;Signal;HPM_P1;HPM_P2
2022/03/18 00:02:22;;;;;;;149.97;46.50;;;;;;;;;;5071052;28;20207;-76
2022/03/18 00:04:49;;;;;;;151.53;47.27;;;;;;;;;;5053908;28;20308;-75
2022/03/18 00:07:16;;;;;;;159.77;47.00;;;;;;;;;;5054844;28;20213;-76
2022/03/18 00:09:45;;;;;;;158.90;45.43;;;;;;;;;;5074422;28;20201;-76
2022/03/18 00:12:12;;;;;;;148.97;45.80;;;;;;;;;;5073565;28;20202;-76
2022/03/18 00:14:42;;;;;;;148.03;45.60;;;;;;;;;;5053778;28;20231;-76
2022/03/18 00:17:09;;;;;;;153.00;45.10;;;;;;;;;;5052906;28;20686;-76
2022/03/18 00:19:36;;;;;;;130.43;44.80;;;;;;;;;;5073210;28;20198;-76
2022/03/18 00:22:04;;;;;;;143.10;43.83;;;;;;;;;;5067465;28;20197;-76
2022/03/18 00:24:32;;;;;;;133.30;44.87;;;;;;;;;;5053311;28;20228;-76
2022/03/18 00:27:01;;;;;;;123.17;42.23;;;;;;;;;;5059862;28;20262;-76
2022/03/18 00:29:28;;;;;;;132.10;43.57;;;;;;;;;;5073405;28;20291;-76
2022/03/18 00:31:55;;;;;;;122.87;42.70;;;;;;;;;;5066368;28;20201;-76
2022/03/18 00:34:22;;;;;;;112.73;40.80;;;;;;;;;;5053021;28;20292;-76
2022/03/18 00:36:49;;;;;;;112.10;40.53;;;;;;;;;;5053525;28;20213;-76
2022/03/18 00:39:17;;;;;;;106.83;40.50;;;;;;;;;;5053079;28;20197;-76
2022/03/18 00:41:44;;;;;;;113.73;41.13;;;;;;;;;;5056996;28;20196;-76
2022/03/18 00:44:14;;;;;;;108.60;39.33;;;;;;;;;;5067364;28;20224;-76
2022/03/18 00:46:41;;;;;;;92.33;38.17;;;;;;;;;;5052523;28;20209;-76
2022/03/18 00:52:05;;;;;;;95.07;37.80;;;;;;;;;;5052929;28;20285;-76
2022/03/18 00:54:34;;;;;;;87.70;37.17;;;;;;;;;;5056558;28;20267;-76
2022/03/18 00:57:01;;;;;;;84.90;34.93;;;;;;;;;;5071899;28;20209;-76
2022/03/18 00:59:30;;;;;;;76.13;34.30;;;;;;;;;;5064525;28;20210;-75
2022/03/18 01:01:57;;;;;;;72.10;33.23;;;;;;;;;;5060062;28;20211;-76
2022/03/18 01:04:25;;;;;;;73.93;32.83;;;;;;;;;;5054023;28;20208;-76
2022/03/18 01:06:53;;;;;;;73.80;32.57;;;;;;;;;;5072178;28;20200;-76
2022/03/18 01:09:21;;;;;;;75.93;33.37;;;;;;;;;;5072149;28;20208;-76
2022/03/18 01:11:49;;;;;;;70.47;32.50;;;;;;;;;;5064519;28;20232;-75
2022/03/18 01:14:17;;;;;;;65.50;31.03;;;;;;;;;;5052571;28;20225;-76
2022/03/18 01:16:47;;;;;;;66.73;31.40;;;;;;;;;;5053035;28;20190;-75
2022/03/18 01:19:14;;;;;;;59.03;30.23;;;;;;;;;;5052395;28;20222;-76
2022/03/18 01:21:42;;;;;;;59.40;30.10;;;;;;;;;;5058001;28;20283;-75
2022/03/18 01:24:10;;;;;;;57.53;29.57;;;;;;;;;;5072255;28;20232;-75
2022/03/18 01:26:38;;;;;;;55.77;29.70;;;;;;;;;;5071394;28;20193;-76
2022/03/18 01:29:05;;;;;;;56.80;29.63;;;;;;;;;;5064630;28;20201;-76
2022/03/18 01:31:32;;;;;;;57.33;29.67;;;;;;;;;;5055680;28;20193;-76
2022/03/18 01:34:01;;;;;;;51.93;28.13;;;;;;;;;;5073334;28;20246;-76
2022/03/18 01:36:28;;;;;;;46.37;27.07;;;;;;;;;;5071123;28;20216;-76
2022/03/18 01:38:55;;;;;;;42.63;26.37;;;;;;;;;;5071299;28;20227;-76
2022/03/18 01:41:23;;;;;;;44.70;25.70;;;;;;;;;;5070629;28;20200;-76
2022/03/18 01:43:50;;;;;;;44.73;26.07;;;;;;;;;;5052097;28;20217;-76
2022/03/18 01:46:18;;;;;;;42.37;25.47;;;;;;;;;;5051562;28;20201;-76
2022/03/18 01:48:46;;;;;;;40.43;26.23;;;;;;;;;;5050639;28;20197;-76
2022/03/18 01:51:16;;;;;;;41.70;25.77;;;;;;;;;;5051769;28;20223;-76
2022/03/18 01:53:44;;;;;;;38.13;24.03;;;;;;;;;;5070763;28;20200;-76
2022/03/18 01:56:11;;;;;;;37.17;23.13;;;;;;;;;;5071755;28;20216;-76
2022/03/18 01:58:39;;;;;;;36.47;24.03;;;;;;;;;;5052741;28;20217;-76
2022/03/18 02:01:06;;;;;;;34.37;23.53;;;;;;;;;;5052073;28;20204;-76
2022/03/18 02:03:33;;;;;;;35.37;23.87;;;;;;;;;;5052208;28;20216;-76
2022/03/18 02:06:01;;;;;;;33.60;22.93;;;;;;;;;;5031612;28;20225;-76
2022/03/18 02:08:30;;;;;;;33.33;21.73;;;;;;;;;;5036375;28;20201;-76
2022/03/18 02:10:58;;;;;;;28.63;21.30;;;;;;;;;;5051618;28;20284;-76
2022/03/18 02:13:25;;;;;;;28.73;21.97;;;;;;;;;;5051697;28;20202;-76
2022/03/18 02:15:52;;;;;;;30.27;21.57;;;;;;;;;;5066684;28;20218;-76
2022/03/18 02:18:19;;;;;;;28.57;21.27;;;;;;;;;;5066041;28;20229;-76
2022/03/18 02:20:46;;;;;;;26.90;20.33;;;;;;;;;;5062969;28;20192;-76
2022/03/18 02:23:15;;;;;;;25.17;20.03;;;;;;;;;;5071848;28;20293;-76
2022/03/18 02:25:42;;;;;;;27.13;19.70;;;;;;;;;;5069999;28;20218;-77
2022/03/18 02:28:09;;;;;;;26.23;19.80;;;;;;;;;;5070706;28;20193;-76
2022/03/18 02:30:36;;;;;;;24.50;19.80;;;;;;;;;;5059966;28;20201;-77
2022/03/18 02:33:04;;;;;;;24.90;19.27;;;;;;;;;;5051320;28;20231;-77
2022/03/18 02:35:32;;;;;;;24.53;20.10;;;;;;;;;;5068427;28;20293;-76
2022/03/18 02:37:59;;;;;;;26.13;20.07;;;;;;;;;;5070560;28;20228;-76
2022/03/18 02:40:28;;;;;;;25.57;19.77;;;;;;;;;;5054678;28;20197;-76
2022/03/18 02:42:55;;;;;;;23.50;18.60;;;;;;;;;;5051268;28;20197;-76
2022/03/18 02:45:22;;;;;;;21.30;17.97;;;;;;;;;;5066150;28;20678;-76
2022/03/18 02:47:50;;;;;;;22.40;17.63;;;;;;;;;;5070666;28;20218;-76
2022/03/18 02:50:17;;;;;;;20.57;16.80;;;;;;;;;;5057160;28;20687;-76
2022/03/18 02:52:44;;;;;;;21.10;16.87;;;;;;;;;;5051303;28;20201;-76
2022/03/18 02:55:12;;;;;;;22.03;17.67;;;;;;;;;;5051258;28;20224;-77
2022/03/18 02:57:41;;;;;;;21.07;16.07;;;;;;;;;;5048773;28;20201;-74
2022/03/18 03:00:09;;;;;;;18.70;15.93;;;;;;;;;;5056501;28;20201;-74
2022/03/18 03:02:36;;;;;;;20.33;15.97;;;;;;;;;;5055754;28;20221;-74
2022/03/18 03:08:00;;;;;;;20.63;16.27;;;;;;;;;;5049832;28;20212;-74
2022/03/18 03:10:28;;;;;;;16.97;15.17;;;;;;;;;;5047935;28;20285;-76
2022/03/18 03:12:57;;;;;;;18.27;14.87;;;;;;;;;;5058592;28;20212;-74
2022/03/18 03:15:24;;;;;;;16.67;14.80;;;;;;;;;;5056729;28;20225;-74
2022/03/18 03:17:51;;;;;;;17.23;14.70;;;;;;;;;;5066071;28;20211;-74
2022/03/18 03:20:19;;;;;;;17.97;14.33;;;;;;;;;;5055553;28;20209;-76
2022/03/18 03:22:46;;;;;;;19.70;14.73;;;;;;;;;;5055824;28;20260;-74
2022/03/18 03:25:13;;;;;;;16.90;14.33;;;;;;;;;;5062134;28;20702;-74
2022/03/18 03:27:40;;;;;;;16.07;14.00;;;;;;;;;;5074563;28;20228;-74
2022/03/18 03:30:10;;;;;;;14.77;13.10;;;;;;;;;;5069655;28;20193;-74
2022/03/18 03:32:37;;;;;;;15.63;14.03;;;;;;;;;;5056056;28;20225;-74
2022/03/18 03:35:05;;;;;;;17.33;14.43;;;;;;;;;;5055420;28;20219;-74
2022/03/18 03:37:32;;;;;;;16.87;14.00;;;;;;;;;;5054902;28;20300;-74
2022/03/18 03:39:59;;;;;;;16.10;13.10;;;;;;;;;;5055856;28;20224;-74
2022/03/18 03:42:27;;;;;;;16.10;13.27;;;;;;;;;;5055409;28;20232;-74
2022/03/18 03:44:54;;;;;;;15.70;13.17;;;;;;;;;;5060207;28;20225;-74
2022/03/18 03:47:23;;;;;;;15.67;13.50;;;;;;;;;;5074106;28;20573;-74
2022/03/18 03:49:50;;;;;;;17.57;13.93;;;;;;;;;;5070630;28;20204;-74
2022/03/18 03:52:17;;;;;;;15.73;13.17;;;;;;;;;;5054971;28;20209;-74
2022/03/18 03:54:44;;;;;;;16.37;14.00;;;;;;;;;;5057517;28;20303;-75
2022/03/18 03:57:11;;;;;;;16.00;13.40;;;;;;;;;;5074153;28;20200;-74
2022/03/18 03:59:38;;;;;;;15.23;12.70;;;;;;;;;;5073580;28;20224;-75
2022/03/18 04:02:06;;;;;;;16.53;13.70;;;;;;;;;;5054027;28;20288;-75
2022/03/18 04:04:34;;;;;;;16.57;13.93;;;;;;;;;;5053915;28;20255;-74
2022/03/18 04:07:02;;;;;;;16.17;13.07;;;;;;;;;;5033557;28;20204;-75
2022/03/18 04:09:29;;;;;;;14.60;13.03;;;;;;;;;;5033569;28;20209;-75
2022/03/18 04:11:56;;;;;;;16.73;12.90;;;;;;;;;;5073057;28;20200;-75
2022/03/18 04:14:24;;;;;;;15.73;12.60;;;;;;;;;;5074155;28;20248;-74
2022/03/18 04:16:51;;;;;;;15.60;13.00;;;;;;;;;;5074074;28;20201;-75
2022/03/18 04:19:18;;;;;;;14.20;12.23;;;;;;;;;;5057150;28;20315;-76
2022/03/18 04:21:47;;;;;;;15.33;13.17;;;;;;;;;;5060798;28;20184;-74
2022/03/18 04:24:14;;;;;;;15.10;12.63;;;;;;;;;;5074164;28;20256;-74
2022/03/18 04:26:41;;;;;;;16.67;12.73;;;;;;;;;;5062371;28;20247;-74
2022/03/18 04:29:10;;;;;;;13.43;12.03;;;;;;;;;;5078450;28;20292;-76
2022/03/18 04:31:37;;;;;;;14.27;12.37;;;;;;;;;;5063782;28;20221;-75
2022/03/18 04:34:05;;;;;;;16.97;12.60;;;;;;;;;;5056357;28;20221;-74
2022/03/18 04:36:32;;;;;;;14.20;12.30;;;;;;;;;;5059966;28;20284;-75
2022/03/18 04:39:01;;;;;;;14.97;12.83;;;;;;;;;;5058632;28;20227;-75
2022/03/18 04:41:28;;;;;;;12.67;11.33;;;;;;;;;;5058908;28;20289;-75
2022/03/18 04:43:55;;;;;;;13.23;11.13;;;;;;;;;;5057775;28;20221;-75
2022/03/18 04:46:23;;;;;;;12.90;11.17;;;;;;;;;;5060522;28;20300;-75
2022/03/18 04:48:50;;;;;;;13.17;11.73;;;;;;;;;;5056258;28;20257;-75
2022/03/18 04:51:20;;;;;;;13.43;11.23;;;;;;;;;;5056212;28;20205;-75
2022/03/18 04:53:47;;;;;;;13.57;12.17;;;;;;;;;;5056082;28;20244;-75
2022/03/18 04:58:56;;;;;;;15.50;12.00;;;;;;;;;;5053809;28;20228;-74
2022/03/18 05:01:23;;;;;;;13.50;12.10;;;;;;;;;;5055812;28;20256;-75
2022/03/18 05:03:51;;;;;;;13.03;11.53;;;;;;;;;;5054457;28;20324;-75
2022/03/18 05:06:18;;;;;;;14.57;11.97;;;;;;;;;;5053015;28;20286;-75
2022/03/18 05:08:45;;;;;;;14.30;12.47;;;;;;;;;;5059316;28;20291;-75
2022/03/18 05:11:13;;;;;;;14.33;12.57;;;;;;;;;;5056162;28;20261;-75
2022/03/18 05:13:42;;;;;;;13.97;12.03;;;;;;;;;;5057220;28;20201;-75
2022/03/18 05:16:09;;;;;;;15.27;12.40;;;;;;;;;;5065994;28;20257;-75
2022/03/18 05:18:36;;;;;;;14.70;12.30;;;;;;;;;;5053130;28;20221;-75
2022/03/18 05:21:04;;;;;;;15.37;13.37;;;;;;;;;;5066271;28;20197;-75
2022/03/18 05:23:32;;;;;;;17.50;13.20;;;;;;;;;;5072629;28;20288;-75
2022/03/18 05:26:00;;;;;;;17.23;13.60;;;;;;;;;;5061066;28;20273;-75
2022/03/18 05:28:27;;;;;;;15.10;13.37;;;;;;;;;;5052787;28;20233;-75
2022/03/18 05:30:56;;;;;;;16.93;13.07;;;;;;;;;;5064864;28;20197;-75
2022/03/18 05:33:23;;;;;;;16.47;13.77;;;;;;;;;;5065756;28;20672;-75
2022/03/18 05:35:50;;;;;;;15.30;13.53;;;;;;;;;;5053024;28;20233;-75
2022/03/18 05:38:18;;;;;;;16.33;13.37;;;;;;;;;;5058689;28;20256;-75
2022/03/18 05:40:45;;;;;;;15.33;13.13;;;;;;;;;;5072490;28;20288;-75
2022/03/18 05:43:13;;;;;;;17.10;13.93;;;;;;;;;;5068024;28;20280;-75
2022/03/18 05:45:40;;;;;;;16.87;14.47;;;;;;;;;;5052397;28;20274;-75
2022/03/18 05:48:09;;;;;;;15.97;13.37;;;;;;;;;;5051983;28;20200;-75
2022/03/18 05:50:36;;;;;;;17.53;14.00;;;;;;;;;;5056634;28;20220;-75
2022/03/18 05:53:04;;;;;;;17.13;14.17;;;;;;;;;;5069940;28;20585;-75
2022/03/18 05:56:52;;;;;;;15.33;13.17;;;;;;;;;;5052102;28;20308;-75
2022/03/18 05:58:18;;;;;;;16.53;12.97;;;;;;;;;;5050892;28;20193;-75
2022/03/18 06:00:46;;;;;;;16.93;14.57;;;;;;;;;;5051786;28;20278;-75
2022/03/18 06:03:15;;;;;;;16.97;13.03;;;;;;;;;;5050820;28;20305;-75
2022/03/18 06:05:43;;;;;;;16.00;13.03;;;;;;;;;;5050359;28;20255;-75
2022/03/18 06:13:40;;;;;;;16.37;14.23;;;;;;;;;;5052327;28;20231;-74
2022/03/18 06:16:07;;;;;;;16.83;14.47;;;;;;;;;;5051944;28;20620;-74
2022/03/18 06:18:35;;;;;;;17.70;14.17;;;;;;;;;;5059332;28;20207;-74
2022/03/18 06:21:06;;;;;;;16.67;13.80;;;;;;;;;;5072400;28;20200;-74
2022/03/18 06:23:34;;;;;;;17.77;15.03;;;;;;;;;;5070412;28;20200;-74
2022/03/18 06:26:01;;;;;;;18.27;14.23;;;;;;;;;;5067374;28;20189;-74
2022/03/18 06:28:28;;;;;;;18.17;14.17;;;;;;;;;;5050899;28;20205;-74
2022/03/18 06:30:56;;;;;;;18.83;14.87;;;;;;;;;;5054380;28;20189;-74
2022/03/18 06:33:23;;;;;;;18.00;14.57;;;;;;;;;;5073405;28;20211;-74
2022/03/18 06:35:51;;;;;;;16.33;14.57;;;;;;;;;;5058224;28;20224;-74
2022/03/18 06:38:19;;;;;;;17.00;14.07;;;;;;;;;;5053650;28;20228;-75
2022/03/18 06:40:46;;;;;;;18.23;15.20;;;;;;;;;;5056585;28;20224;-74
2022/03/18 06:43:13;;;;;;;16.77;14.53;;;;;;;;;;5074302;28;20228;-74
2022/03/18 06:45:41;;;;;;;17.50;14.83;;;;;;;;;;5075220;28;20221;-74
2022/03/18 06:48:08;;;;;;;18.80;15.67;;;;;;;;;;5075327;28;20214;-74
2022/03/18 06:50:35;;;;;;;19.70;15.83;;;;;;;;;;5074296;28;20794;-74
2022/03/18 06:53:04;;;;;;;19.63;15.60;;;;;;;;;;5075575;28;20220;-74
2022/03/18 06:55:31;;;;;;;17.47;15.43;;;;;;;;;;5057518;28;20247;-74
2022/03/18 06:57:58;;;;;;;19.27;14.70;;;;;;;;;;5054716;28;20201;-74
2022/03/18 07:00:26;;;;;;;17.90;15.63;;;;;;;;;;5055857;28;20308;-74
2022/03/18 07:02:53;;;;;;;20.63;15.33;;;;;;;;;;5047190;28;20197;-74
2022/03/18 07:05:20;;;;;;;18.73;15.00;;;;;;;;;;5055033;28;20233;-74
2022/03/18 07:07:49;;;;;;;18.70;15.40;;;;;;;;;;5053192;28;20215;-74
2022/03/18 07:10:17;;;;;;;17.57;14.40;;;;;;;;;;5055133;28;20201;-74
2022/03/18 07:12:45;;;;;;;20.40;16.57;;;;;;;;;;5054700;28;20292;-74
2022/03/18 07:15:12;;;;;;;18.67;15.23;;;;;;;;;;5052318;28;20224;-74
2022/03/18 07:17:59;;;;;;;18.50;15.57;;;;;;;;;;5052453;28;20224;-74
2022/03/18 07:20:28;;;;;;;19.63;15.17;;;;;;;;;;5055283;28;20224;-74
2022/03/18 07:23:05;;;;;;;20.23;16.80;;;;;;;;;;5052741;28;20644;-75
2022/03/18 07:25:34;;;;;;;18.67;15.30;;;;;;;;;;5055010;28;20280;-74
2022/03/18 07:28:01;;;;;;;20.00;16.43;;;;;;;;;;5053704;28;20201;-74
2022/03/18 07:30:34;;;;;;;17.07;15.20;;;;;;;;;;5054929;28;20221;-74
2022/03/18 07:33:01;;;;;;;17.20;15.20;;;;;;;;;;5053883;28;20291;-74
2022/03/18 07:35:28;;;;;;;21.03;16.87;;;;;;;;;;5054586;28;20342;-74
2022/03/18 07:37:56;;;;;;;21.70;16.17;;;;;;;;;;5053351;28;20198;-74
2022/03/18 07:40:23;;;;;;;20.17;17.27;;;;;;;;;;5053976;28;20312;-74
2022/03/18 07:42:53;;;;;;;20.03;15.93;;;;;;;;;;5053802;28;20273;-74
2022/03/18 07:45:20;;;;;;;19.30;15.93;;;;;;;;;;5052964;28;20249;-74
2022/03/18 07:47:51;;;;;;;19.10;16.57;;;;;;;;;;5053041;28;20205;-82
2022/03/18 07:50:21;;;;;;;19.77;16.70;;;;;;;;;;5056273;28;20193;-75
2022/03/18 07:52:50;;;;;;;20.20;16.67;;;;;;;;;;5051612;28;20205;-76
2022/03/18 07:55:18;;;;;;;22.07;18.13;;;;;;;;;;5056789;28;20223;-74
2022/03/18 07:57:45;;;;;;;22.00;17.00;;;;;;;;;;5056340;28;20201;-78
2022/03/18 08:00:17;;;;;;;23.13;18.57;;;;;;;;;;5067467;28;20217;-77
2022/03/18 08:02:48;;;;;;;25.00;19.03;;;;;;;;;;5065241;28;20193;-75
2022/03/18 08:05:15;;;;;;;21.73;19.10;;;;;;;;;;5054168;28;20227;-78
2022/03/18 08:07:46;;;;;;;27.43;21.57;;;;;;;;;;5060932;28;20192;-77
2022/03/18 08:10:14;;;;;;;22.87;19.33;;;;;;;;;;5074131;28;20200;-77
2022/03/18 08:12:42;;;;;;;28.23;21.53;;;;;;;;;;5072105;28;20220;-77
2022/03/18 08:18:03;;;;;;;30.57;24.00;;;;;;;;;;5034058;28;20266;-77
2022/03/18 08:20:30;;;;;;;29.93;25.77;;;;;;;;;;5054082;28;20205;-76
2022/03/18 08:22:57;;;;;;;32.43;24.50;;;;;;;;;;5052932;28;20210;-76
2022/03/18 08:28:34;;;;;;;30.10;23.13;;;;;;;;;;4987269;28;20195;-76
2022/03/18 08:31:01;;;;;;;30.57;23.90;;;;;;;;;;4992930;28;20286;-76
2022/03/18 08:33:35;;;;;;;29.80;24.00;;;;;;;;;;5011704;28;20580;-76
2022/03/18 08:36:03;;;;;;;29.33;23.33;;;;;;;;;;4999221;28;20265;-77
2022/03/18 08:38:33;;;;;;;29.70;24.57;;;;;;;;;;4991019;28;20242;-78
2022/03/18 08:41:04;;;;;;;31.07;24.30;;;;;;;;;;4990157;28;20227;-76
2022/03/18 08:43:32;;;;;;;29.97;23.13;;;;;;;;;;4991818;28;20246;-75
2022/03/18 08:46:01;;;;;;;27.33;23.83;;;;;;;;;;4991813;28;20211;-77
2022/03/18 08:48:30;;;;;;;28.47;23.63;;;;;;;;;;4995181;28;20219;-75
2022/03/18 08:50:59;;;;;;;27.00;22.30;;;;;;;;;;4990367;28;20199;-75
2022/03/18 08:53:26;;;;;;;28.00;22.80;;;;;;;;;;4991883;28;20686;-75
2022/03/18 08:55:56;;;;;;;27.57;22.60;;;;;;;;;;4992242;28;20203;-75
2022/03/18 08:58:45;;;;;;;27.47;23.13;;;;;;;;;;4989589;28;20203;-79
2022/03/18 09:01:26;;;;;;;27.77;21.90;;;;;;;;;;4991664;28;20227;-78
2022/03/18 09:03:57;;;;;;;26.23;22.03;;;;;;;;;;4973136;28;20224;-75
2022/03/18 09:06:34;;;;;;;24.03;21.13;;;;;;;;;;5037718;28;20215;-77
2022/03/18 09:09:03;;;;;;;25.13;20.90;;;;;;;;;;5052415;28;20205;-75
2022/03/18 09:11:30;;;;;;;25.80;21.50;;;;;;;;;;5053309;28;20189;-78
2022/03/18 09:14:02;;;;;;;29.70;22.07;;;;;;;;;;5054160;28;20706;-77
2022/03/18 09:16:36;;;;;;;24.43;20.37;;;;;;;;;;5052880;28;20243;-76
2022/03/18 09:19:05;;;;;;;25.43;20.70;;;;;;;;;;5053032;28;20193;-77
2022/03/18 09:21:38;;;;;;;25.63;21.90;;;;;;;;;;5053157;28;20240;-79
2022/03/18 09:24:06;;;;;;;24.97;20.13;;;;;;;;;;5052905;28;20217;-77
2022/03/18 09:26:33;;;;;;;25.90;21.90;;;;;;;;;;5072987;28;20207;-76
2022/03/18 09:31:41;;;;;;;25.33;19.90;;;;;;;;;;5071653;28;20204;-78
2022/03/18 09:34:12;;;;;;;24.37;20.37;;;;;;;;;;5077736;28;20291;-78
2022/03/18 09:36:50;;;;;;;27.37;20.07;;;;;;;;;;5047534;28;20209;-81
2022/03/18 09:39:19;;;;;;;25.20;19.90;;;;;;;;;;5052175;28;20201;-78
2022/03/18 09:41:46;;;;;;;26.60;20.97;;;;;;;;;;5056219;28;20224;-77
2022/03/18 09:44:36;;;;;;;23.57;21.07;;;;;;;;;;5055173;28;20242;-86
2022/03/18 09:47:10;;;;;;;23.40;20.27;;;;;;;;;;5048775;28;20205;-90
2022/03/18 09:49:39;;;;;;;23.30;20.23;;;;;;;;;;5052382;28;20194;-78
2022/03/18 09:52:07;;;;;;;25.50;20.83;;;;;;;;;;5052242;28;20243;-78
2022/03/18 09:54:48;;;;;;;24.77;20.07;;;;;;;;;;5050032;28;20309;-78
2022/03/18 09:57:17;;;;;;;26.37;21.17;;;;;;;;;;5048780;28;20212;-77
2022/03/18 09:59:47;;;;;;;24.53;20.60;;;;;;;;;;5052304;28;20205;-77
2022/03/18 10:02:25;;;;;;;24.83;21.10;;;;;;;;;;5052207;28;20280;-76
2022/03/18 10:04:54;;;;;;;26.53;21.13;;;;;;;;;;5052399;28;20224;-75
2022/03/18 10:07:22;;;;;;;24.13;20.60;;;;;;;;;;5052842;28;20204;-76
2022/03/18 10:09:58;;;;;;;25.13;21.50;;;;;;;;;;5056550;28;20235;-78
2022/03/18 10:12:29;;;;;;;28.50;21.87;;;;;;;;;;5064806;28;20603;-78
2022/03/18 10:20:33;;;;;;;25.43;21.53;;;;;;;;;;5070765;28;20223;-77
2022/03/18 10:23:05;;;;;;;25.87;21.77;;;;;;;;;;5072703;28;20208;-77
2022/03/18 10:29:02;;;;;;;25.70;22.33;;;;;;;;;;5031413;28;20300;-78
2022/03/18 10:31:49;;;;;;;25.83;23.03;;;;;;;;;;5061589;28;20197;-78
2022/03/18 10:40:28;;;;;;;26.27;22.17;;;;;;;;;;5010459;28;20339;-85
2022/03/18 10:43:00;;;;;;;28.20;22.83;;;;;;;;;;5050486;28;20225;-76
2022/03/18 10:45:31;;;;;;;24.43;21.63;;;;;;;;;;5058835;28;20307;-76
2022/03/18 10:48:13;;;;;;;26.77;23.27;;;;;;;;;;5050442;28;20194;-76
2022/03/18 10:50:55;;;;;;;28.57;23.27;;;;;;;;;;5062217;28;20215;-76
2022/03/18 10:53:26;;;;;;;27.23;22.90;;;;;;;;;;5070718;28;20189;-73
2022/03/18 10:55:54;;;;;;;28.70;23.70;;;;;;;;;;5053043;28;20303;-73
2022/03/18 10:58:29;;;;;;;26.37;22.53;;;;;;;;;;5050061;28;20212;-73
2022/03/18 11:00:58;;;;;;;30.33;23.43;;;;;;;;;;5051626;28;20262;-74
2022/03/18 11:03:28;;;;;;;27.37;23.27;;;;;;;;;;5050841;28;20288;-74
2022/03/18 11:05:58;;;;;;;25.83;22.07;;;;;;;;;;5067497;28;20253;-74
2022/03/18 11:08:31;;;;;;;26.90;22.37;;;;;;;;;;5049879;28;20233;-74
2022/03/18 11:11:11;;;;;;;24.83;21.50;;;;;;;;;;5051694;28;20201;-74
2022/03/18 11:14:02;;;;;;;25.80;21.73;;;;;;;;;;5052822;28;20200;-74
2022/03/18 11:16:33;;;;;;;25.03;21.93;;;;;;;;;;5068696;28;20208;-73
2022/03/18 11:19:05;;;;;;;24.80;22.10;;;;;;;;;;5055681;28;20209;-75
2022/03/18 11:21:38;;;;;;;26.30;21.80;;;;;;;;;;5049316;28;20244;-76
2022/03/18 11:24:06;;;;;;;26.10;22.47;;;;;;;;;;5055086;28;20228;-78
2022/03/18 11:26:35;;;;;;;24.93;22.07;;;;;;;;;;5069789;28;20228;-79
2022/03/18 11:29:07;;;;;;;24.90;22.00;;;;;;;;;;5060114;28;20307;-78
2022/03/18 11:31:35;;;;;;;24.80;22.03;;;;;;;;;;5041757;28;20204;-77
2022/03/18 11:34:10;;;;;;;27.87;22.53;;;;;;;;;;5053522;28;20222;-75
2022/03/18 11:36:38;;;;;;;25.37;22.67;;;;;;;;;;5053554;28;20252;-75
2022/03/18 11:39:06;;;;;;;26.40;22.67;;;;;;;;;;5054190;28;20288;-75
2022/03/18 11:41:58;;;;;;;28.17;22.50;;;;;;;;;;5052788;28;20245;-79
2022/03/18 11:44:45;;;;;;;28.00;23.47;;;;;;;;;;5054305;28;20714;-77
2022/03/18 11:47:40;;;;;;;27.57;22.50;;;;;;;;;;5053906;28;20201;-76
2022/03/18 11:50:26;;;;;;;28.10;23.23;;;;;;;;;;5020644;28;20209;-77
2022/03/18 11:53:03;;;;;;;28.07;23.10;;;;;;;;;;5067373;28;20196;-76
2022/03/18 11:55:39;;;;;;;26.47;22.87;;;;;;;;;;5060038;28;20239;-77
2022/03/18 11:58:21;;;;;;;28.60;23.83;;;;;;;;;;5047348;28;20682;-77
2022/03/18 12:00:49;;;;;;;25.77;22.90;;;;;;;;;;5053595;28;20667;-75
2022/03/18 12:03:21;;;;;;;26.67;23.47;;;;;;;;;;5057030;28;20201;-77
2022/03/18 12:05:56;;;;;;;27.33;22.70;;;;;;;;;;5051160;28;20229;-77
2022/03/18 12:08:42;;;;;;;27.00;23.33;;;;;;;;;;5047486;28;20217;-76
2022/03/18 12:14:48;;;;;;;27.30;23.83;;;;;;;;;;5097997;27;20591;-75
2022/03/18 12:17:18;;;;;;;27.43;23.50;;;;;;;;;;5085407;28;20196;-76
2022/03/18 12:19:52;;;;;;;27.73;23.47;;;;;;;;;;5082433;28;20227;-77
2022/03/18 12:22:29;;;;;;;27.60;23.20;;;;;;;;;;5082287;28;20200;-82
2022/03/18 12:24:59;;;;;;;27.67;23.43;;;;;;;;;;5079690;28;20226;-76
2022/03/18 12:27:30;;;;;;;28.70;23.70;;;;;;;;;;5084445;28;20204;-76
2022/03/18 12:30:02;;;;;;;28.27;23.10;;;;;;;;;;5078878;28;20200;-77
2022/03/18 12:32:31;;;;;;;25.47;22.33;;;;;;;;;;5080306;28;20250;-76
2022/03/18 12:35:00;;;;;;;26.10;23.33;;;;;;;;;;5073959;28;20274;-77
2022/03/18 12:37:31;;;;;;;27.33;24.40;;;;;;;;;;5067235;28;20211;-77
2022/03/18 12:40:12;;;;;;;26.67;23.20;;;;;;;;;;5070290;28;20282;-77
2022/03/18 12:42:50;;;;;;;28.00;24.17;;;;;;;;;;5063827;28;20264;-79
2022/03/18 12:45:29;;;;;;;27.60;23.13;;;;;;;;;;5074836;28;20218;-79
2022/03/18 12:47:57;;;;;;;27.80;23.03;;;;;;;;;;5062076;28;20235;-78
2022/03/18 12:50:28;;;;;;;24.17;21.63;;;;;;;;;;5072682;28;20284;-78
2022/03/18 12:53:01;;;;;;;25.43;21.77;;;;;;;;;;5061830;28;20229;-83
2022/03/18 12:55:30;;;;;;;25.33;22.43;;;;;;;;;;5073736;28;20220;-78
2022/03/18 12:58:06;;;;;;;23.50;21.07;;;;;;;;;;5073890;28;20250;-78
2022/03/18 13:00:43;;;;;;;24.07;21.50;;;;;;;;;;5060413;28;20197;-77
2022/03/18 13:03:16;;;;;;;26.63;22.67;;;;;;;;;;5062105;28;20201;-77
2022/03/18 13:05:44;;;;;;;24.90;22.20;;;;;;;;;;5068260;28;20299;-77
2022/03/18 13:08:12;;;;;;;25.33;22.63;;;;;;;;;;5060165;28;20619;-76
2022/03/18 13:10:40;;;;;;;23.27;20.70;;;;;;;;;;5065955;28;20200;-77
2022/03/18 13:13:09;;;;;;;23.90;21.50;;;;;;;;;;5060102;28;20272;-76
2022/03/18 13:15:36;;;;;;;24.07;21.53;;;;;;;;;;5068818;28;20255;-76
2022/03/18 13:18:13;;;;;;;22.93;20.53;;;;;;;;;;5068135;28;20227;-76
2022/03/18 13:20:41;;;;;;;24.70;21.23;;;;;;;;;;5064092;28;20378;-76
2022/03/18 13:23:10;;;;;;;24.80;21.37;;;;;;;;;;5067992;28;20200;-76
2022/03/18 13:25:40;;;;;;;22.73;20.33;;;;;;;;;;5058411;28;20229;-76
2022/03/18 13:28:11;;;;;;;23.17;20.67;;;;;;;;;;5052336;28;20193;-76
2022/03/18 13:33:25;;;;;;;22.50;20.13;;;;;;;;;;5050446;28;20221;-76
2022/03/18 13:35:54;;;;;;;22.77;20.43;;;;;;;;;;5050768;28;20229;-76
2022/03/18 13:38:22;;;;;;;22.25;19.90;;;;;;;;;;5056496;28;20292;-77
2022/03/18 13:40:58;;;;;;;24.02;20.50;;;;;;;;;;5054098;28;20280;-77
2022/03/18 13:43:27;;;;;;;23.63;20.48;;;;;;;;;;5059566;28;20284;-76
2022/03/18 13:45:54;;;;;;;20.77;18.67;;;;;;;;;;5059787;28;20221;-80
2022/03/18 13:48:29;;;;;;;22.47;20.10;;;;;;;;;;5054620;28;20225;-76
2022/03/18 13:50:56;;;;;;;21.65;19.35;;;;;;;;;;5056375;28;20263;-78
2022/03/18 13:53:27;;;;;;;22.33;19.92;;;;;;;;;;5055882;28;20221;-80
2022/03/18 13:55:56;;;;;;;23.23;20.83;;;;;;;;;;5056830;28;20264;-75
2022/03/18 13:58:26;;;;;;;21.80;19.45;;;;;;;;;;5053082;28;20209;-75
2022/03/18 14:00:54;;;;;;;23.23;20.67;;;;;;;;;;5055670;28;20233;-76
2022/03/18 14:03:32;;;;;;;22.77;20.42;;;;;;;;;;5050804;28;20255;-74
2022/03/18 14:06:00;;;;;;;22.52;20.15;;;;;;;;;;5048167;28;20209;-75
2022/03/18 14:08:28;;;;;;;22.27;19.90;;;;;;;;;;5051530;28;20207;-74
2022/03/18 14:10:57;;;;;;;21.50;19.20;;;;;;;;;;5052977;28;20205;-75
2022/03/18 14:13:28;;;;;;;21.02;18.67;;;;;;;;;;5056350;28;20304;-74
2022/03/18 14:15:56;;;;;;;21.83;19.53;;;;;;;;;;5051939;28;20274;-73
2022/03/18 14:18:46;;;;;;;22.23;19.75;;;;;;;;;;5052215;28;20300;-74
2022/03/18 14:21:15;;;;;;;22.90;20.10;;;;;;;;;;5049033;28;20288;-74
2022/03/18 14:23:48;;;;;;;22.57;19.87;;;;;;;;;;5050012;28;20202;-75
2022/03/18 14:26:16;;;;;;;21.80;19.30;;;;;;;;;;5052113;28;20208;-74
2022/03/18 14:28:43;;;;;;;21.27;19.13;;;;;;;;;;5050863;28;20203;-73
2022/03/18 14:31:10;;;;;;;20.33;18.23;;;;;;;;;;5051637;28;20201;-74
2022/03/18 14:33:44;;;;;;;21.58;18.52;;;;;;;;;;5051275;28;20214;-91
2022/03/18 14:36:30;;;;;;;22.30;18.92;;;;;;;;;;5036392;28;20210;-77
2022/03/18 14:39:01;;;;;;;20.30;17.67;;;;;;;;;;5038001;28;20209;-77
2022/03/18 14:41:37;;;;;;;21.08;18.58;;;;;;;;;;5055393;28;20217;-80
2022/03/18 14:44:05;;;;;;;20.23;18.10;;;;;;;;;;5053314;28;20607;-77
2022/03/18 14:46:34;;;;;;;20.05;17.95;;;;;;;;;;5055924;28;20201;-77
2022/03/18 14:49:05;;;;;;;21.52;19.05;;;;;;;;;;5051265;28;20272;-78
2022/03/18 14:51:36;;;;;;;20.83;18.60;;;;;;;;;;5053900;28;20201;-78
2022/03/18 14:54:03;;;;;;;22.43;18.90;;;;;;;;;;5056426;28;20346;-78
2022/03/18 14:56:33;;;;;;;21.48;19.10;;;;;;;;;;5055923;28;20613;-78
2022/03/18 14:59:03;;;;;;;21.37;19.10;;;;;;;;;;5051029;28;20197;-78
2022/03/18 15:01:33;;;;;;;21.90;19.33;;;;;;;;;;5056299;28;20197;-78
2022/03/18 15:04:05;;;;;;;20.42;18.23;;;;;;;;;;5052702;28;20691;-78
2022/03/18 15:06:40;;;;;;;22.75;19.23;;;;;;;;;;5050721;28;20228;-77
2022/03/18 15:09:10;;;;;;;20.63;18.17;;;;;;;;;;5054302;28;20197;-78
2022/03/18 15:11:38;;;;;;;20.75;18.75;;;;;;;;;;5053114;28;20213;-78
2022/03/18 15:14:05;;;;;;;21.05;18.92;;;;;;;;;;5034464;28;20218;-78
2022/03/18 15:16:32;;;;;;;20.23;18.20;;;;;;;;;;5045871;28;20193;-77